Time;durP1;ratioP1;P1;durP2;ratioP2;P2;SDS_P1;SDS_P2;PMS_P1;PMS_P2;Temp;Humidity;BMP_temperature;BMP_pressure;BME280_temperature;BME280_humidity;BME280_pressure;Samples;Min_cycle;Max_cycle;Signal;HPM_P1;HPM_P2
2022/12/06 00:01:16;;;;;;;392.80;272.35;;;5.00;99.90;;;;;;6185902;23;20074;-83
2022/12/06 00:03:43;;;;;;;376.73;268.83;;;4.90;99.90;;;;;;6186165;23;20096;-83
2022/12/06 00:06:14;;;;;;;298.73;216.88;;;4.90;99.90;;;;;;6159544;23;20413;-83
2022/12/06 00:08:40;;;;;;;368.90;269.00;;;5.00;99.90;;;;;;6159192;23;20432;-83
2022/12/06 00:11:26;;;;;;;365.25;265.58;;;4.90;99.90;;;;;;6159352;23;20017;-83
2022/12/06 00:13:54;;;;;;;274.30;210.27;;;5.00;99.90;;;;;;6185549;23;20049;-84
2022/12/06 00:16:21;;;;;;;316.65;257.05;;;5.00;99.90;;;;;;6185549;23;20118;-84
2022/12/06 00:18:48;;;;;;;345.30;262.02;;;5.00;99.90;;;;;;6159254;23;20055;-84
2022/12/06 00:21:23;;;;;;;306.40;255.27;;;5.00;99.90;;;;;;6185951;23;20013;-84
2022/12/06 00:23:52;;;;;;;330.50;260.25;;;5.00;99.90;;;;;;6185846;23;20103;-83
2022/12/06 00:26:19;;;;;;;293.05;253.90;;;5.10;99.90;;;;;;6185367;23;20020;-84
2022/12/06 00:28:45;;;;;;;305.60;257.00;;;5.10;99.90;;;;;;6185578;23;20022;-83
2022/12/06 00:31:19;;;;;;;221.95;191.52;;;5.10;99.90;;;;;;6185582;23;20354;-84
2022/12/06 00:33:45;;;;;;;298.27;254.48;;;5.10;99.90;;;;;;6185601;23;20369;-83
2022/12/06 00:36:18;;;;;;;288.73;250.85;;;5.10;99.90;;;;;;6159089;23;20024;-85
2022/12/06 00:38:44;;;;;;;273.83;244.55;;;5.00;99.90;;;;;;6185602;23;20025;-84
2022/12/06 00:41:14;;;;;;;195.65;175.70;;;5.00;99.90;;;;;;6158698;23;20017;-84
2022/12/06 00:43:40;;;;;;;270.75;243.63;;;5.00;99.90;;;;;;6159230;23;20024;-84
2022/12/06 00:46:07;;;;;;;269.95;242.75;;;5.00;99.90;;;;;;6185631;23;20021;-84
2022/12/06 00:48:34;;;;;;;179.38;162.48;;;5.00;99.90;;;;;;6185568;23;20017;-83
2022/12/06 00:51:00;;;;;;;183.70;166.40;;;5.00;99.90;;;;;;6185161;23;20131;-84
2022/12/06 00:53:26;;;;;;;184.43;166.50;;;4.90;99.90;;;;;;6185320;23;20016;-84
2022/12/06 00:55:52;;;;;;;144.70;134.43;;;4.90;99.90;;;;;;6184796;23;20051;-83
2022/12/06 00:58:17;;;;;;;263.50;237.15;;;4.90;99.90;;;;;;6185609;23;20320;-84
2022/12/06 01:00:43;;;;;;;182.38;164.55;;;4.90;99.90;;;;;;6185596;23;20024;-83
2022/12/06 01:03:10;;;;;;;185.90;167.38;;;4.90;99.90;;;;;;6185099;23;20329;-84
2022/12/06 01:05:44;;;;;;;256.88;234.20;;;4.80;99.90;;;;;;6185601;23;20444;-83
2022/12/06 01:08:10;;;;;;;167.70;153.35;;;4.90;99.90;;;;;;6185425;23;20368;-84
2022/12/06 01:10:36;;;;;;;255.35;231.38;;;4.80;99.90;;;;;;6158883;23;20064;-83
2022/12/06 01:13:04;;;;;;;182.93;165.88;;;5.50;99.90;;;;;;6185347;23;20020;-84
2022/12/06 01:15:30;;;;;;;250.32;227.10;;;4.90;99.90;;;;;;6185295;23;20139;-84
2022/12/06 01:17:56;;;;;;;242.15;221.05;;;5.70;99.90;;;;;;6158535;23;20024;-83
2022/12/06 01:20:22;;;;;;;173.38;157.75;;;5.80;99.90;;;;;;6185029;23;20017;-84
2022/12/06 01:22:47;;;;;;;253.48;231.48;;;5.20;99.90;;;;;;6185640;23;20016;-84
2022/12/06 01:25:13;;;;;;;158.18;144.98;;;4.70;99.90;;;;;;6185209;23;20021;-83
2022/12/06 01:27:39;;;;;;;159.70;146.32;;;4.80;99.90;;;;;;6185563;23;20309;-84
2022/12/06 01:30:05;;;;;;;158.02;145.77;;;3.80;99.90;;;;;;6185169;23;20080;-83
2022/12/06 01:32:31;;;;;;;170.05;154.63;;;4.80;99.90;;;;;;6184971;23;20091;-83
2022/12/06 01:34:57;;;;;;;147.18;136.15;;;4.10;99.90;;;;;;6185425;23;20095;-82
2022/12/06 01:37:22;;;;;;;166.43;152.27;;;6.30;99.90;;;;;;6185261;23;20032;-82
2022/12/06 01:39:48;;;;;;;159.48;145.95;;;4.80;99.90;;;;;;6185315;23;20443;-83
2022/12/06 01:42:15;;;;;;;160.13;146.52;;;5.80;99.90;;;;;;6184823;23;20073;-83
2022/12/06 01:44:50;;;;;;;163.45;149.80;;;5.10;99.90;;;;;;6184992;23;20052;-83
2022/12/06 01:47:26;;;;;;;221.80;206.07;;;4.80;99.90;;;;;;6185066;23;20383;-83
2022/12/06 01:50:20;;;;;;;219.25;204.43;;;4.80;99.90;;;;;;6185029;23;20610;-83
2022/12/06 01:53:07;;;;;;;245.18;223.77;;;4.80;99.90;;;;;;6158716;23;20067;-83
2022/12/06 01:55:37;;;;;;;232.45;213.93;;;5.30;99.90;;;;;;6158504;23;20089;-84
2022/12/06 01:58:11;;;;;;;235.95;216.63;;;4.80;99.90;;;;;;6159022;23;20013;-84
2022/12/06 02:00:37;;;;;;;240.50;221.02;;;4.70;99.90;;;;;;6185261;23;20088;-83
2022/12/06 02:03:06;;;;;;;223.43;207.43;;;5.20;99.90;;;;;;6184968;23;20017;-84
2022/12/06 02:05:35;;;;;;;147.55;136.60;;;5.90;99.90;;;;;;6184510;23;20025;-84
2022/12/06 02:08:02;;;;;;;197.38;185.30;;;3.90;99.90;;;;;;6185287;23;20092;-84
2022/12/06 02:10:28;;;;;;;217.15;201.60;;;4.70;99.90;;;;;;6184945;23;20021;-84
2022/12/06 02:12:55;;;;;;;147.73;137.18;;;4.70;99.90;;;;;;6184977;23;20019;-84
2022/12/06 02:15:31;;;;;;;213.23;198.65;;;5.60;99.90;;;;;;6184456;23;20021;-84
2022/12/06 02:18:13;;;;;;;201.82;188.68;;;4.70;99.90;;;;;;6185150;23;20045;-83
2022/12/06 02:20:46;;;;;;;109.22;103.13;;;4.80;99.90;;;;;;6158682;23;20017;-83
2022/12/06 02:23:23;;;;;;;195.40;183.38;;;4.30;99.90;;;;;;6185135;23;20333;-83
2022/12/06 02:26:13;;;;;;;175.88;165.73;;;6.30;99.90;;;;;;6186144;23;20032;-83
2022/12/06 02:28:57;;;;;;;146.82;139.48;;;4.80;99.90;;;;;;6186733;23;20024;-84
2022/12/06 02:31:49;;;;;;;47.92;45.67;;;4.80;99.90;;;;;;6186993;23;20016;-82
2022/12/06 02:34:28;;;;;;;40.50;38.55;;;4.80;99.90;;;;;;6186693;23;20071;-83
2022/12/06 02:37:09;;;;;;;29.23;27.67;;;4.80;99.90;;;;;;6160361;23;20017;-83
2022/12/06 02:39:43;;;;;;;82.70;78.32;;;4.80;99.90;;;;;;6186063;23;20470;-83
2022/12/06 02:42:21;;;;;;;38.80;36.85;;;4.80;99.90;;;;;;6186535;23;20016;-83
2022/12/06 02:44:54;;;;;;;91.28;86.80;;;4.80;99.90;;;;;;6186514;23;20013;-83
2022/12/06 02:47:24;;;;;;;68.53;65.13;;;4.90;99.90;;;;;;6186332;23;20389;-83
2022/12/06 02:49:53;;;;;;;54.92;52.17;;;4.80;99.90;;;;;;6186095;23;20088;-83
2022/12/06 02:52:25;;;;;;;30.60;28.88;;;4.80;99.90;;;;;;6186328;23;20506;-84
2022/12/06 02:54:57;;;;;;;2.85;1.52;;;4.70;99.90;;;;;;6159776;23;20468;-84
2022/12/06 02:57:45;;;;;;;1.80;0.68;;;4.70;99.90;;;;;;6186298;23;20028;-84
2022/12/06 03:00:43;;;;;;;1.73;0.82;;;4.60;99.90;;;;;;6186837;23;20067;-84
2022/12/06 03:03:27;;;;;;;25.88;24.52;;;4.60;99.90;;;;;;6186776;23;20067;-84
2022/12/06 03:05:59;;;;;;;42.53;40.50;;;4.60;99.90;;;;;;6186367;23;20021;-84
2022/12/06 03:08:48;;;;;;;9.82;9.20;;;4.60;99.90;;;;;;6186356;23;20093;-84
2022/12/06 03:11:14;;;;;;;29.08;27.38;;;4.60;99.90;;;;;;6159879;23;20032;-83
2022/12/06 03:13:53;;;;;;;97.15;92.10;;;4.50;99.90;;;;;;6159774;23;20408;-83
2022/12/06 03:16:29;;;;;;;2.30;0.88;;;4.50;99.90;;;;;;6186620;23;20048;-84
2022/12/06 03:19:06;;;;;;;45.60;43.38;;;4.80;99.90;;;;;;6159365;23;20025;-84
2022/12/06 03:21:40;;;;;;;29.55;27.83;;;3.80;99.90;;;;;;6186253;23;20021;-84
2022/12/06 03:24:10;;;;;;;42.17;40.00;;;4.50;99.90;;;;;;6159731;23;20016;-82
2022/12/06 03:26:38;;;;;;;28.45;27.13;;;4.80;99.90;;;;;;6186501;23;20069;-83
2022/12/06 03:29:06;;;;;;;8.02;7.57;;;4.40;99.90;;;;;;6186179;23;20039;-83
2022/12/06 03:31:36;;;;;;;0.88;0.88;;;4.50;99.90;;;;;;6186572;23;20039;-83
2022/12/06 03:34:13;;;;;;;1.17;0.60;;;5.30;99.90;;;;;;6159493;23;20032;-83
2022/12/06 03:36:41;;;;;;;2.50;1.05;;;4.40;99.90;;;;;;6185783;23;20075;-82
2022/12/06 03:39:09;;;;;;;17.13;16.35;;;4.60;99.90;;;;;;6186539;23;20017;-83
2022/12/06 03:41:46;;;;;;;1.15;1.05;;;5.40;99.90;;;;;;6159342;23;20013;-83
2022/12/06 03:44:11;;;;;;;1.02;0.98;;;4.40;99.90;;;;;;6186304;23;20024;-83
2022/12/06 03:46:43;;;;;;;0.45;0.38;;;5.20;99.90;;;;;;6159815;23;20017;-83
2022/12/06 03:49:16;;;;;;;0.60;0.45;;;3.80;99.90;;;;;;6186183;23;20017;-83
2022/12/06 03:51:43;;;;;;;1.38;1.27;;;4.40;99.90;;;;;;6159373;23;20092;-83
2022/12/06 03:54:09;;;;;;;1.08;0.77;;;3.80;99.90;;;;;;6185734;23;20017;-83
2022/12/06 03:56:36;;;;;;;0.20;0.20;;;4.40;99.90;;;;;;6186341;23;20144;-82
2022/12/06 03:59:03;;;;;;;1.98;0.40;;;5.00;99.90;;;;;;6159538;23;20353;-83
2022/12/06 04:01:31;;;;;;;0.20;0.20;;;4.30;99.90;;;;;;6160228;23;20016;-83
2022/12/06 04:03:58;;;;;;;1.45;0.35;;;4.60;99.90;;;;;;6185578;23;20132;-83
2022/12/06 04:06:24;;;;;;;0.22;0.20;;;4.70;99.90;;;;;;6185862;23;20021;-84
2022/12/06 04:08:50;;;;;;;0.30;0.30;;;5.20;99.90;;;;;;6159448;23;20071;-83
2022/12/06 04:11:16;;;;;;;0.22;0.22;;;4.90;99.90;;;;;;6159412;23;20020;-83
2022/12/06 04:13:41;;;;;;;0.20;0.20;;;4.20;99.90;;;;;;6159593;23;20239;-84
2022/12/06 04:18:09;;;;;;;0.20;0.20;;;3.80;99.90;;;;;;6159120;23;20017;-84
2022/12/06 04:18:54;;;;;;;0.32;0.20;;;4.40;99.90;;;;;;6185445;23;20576;-83
2022/12/06 04:23:59;;;;;;;0.32;0.28;;;4.80;99.90;;;;;;6184899;23;20021;-84
2022/12/06 04:26:25;;;;;;;0.65;0.20;;;4.80;99.90;;;;;;6185919;23;20013;-84
2022/12/06 04:39:52;;;;;;;0.30;0.20;;;3.80;99.90;;;;;;6185526;23;20047;-83
2022/12/06 04:45:04;;;;;;;0.20;0.20;;;3.70;99.90;;;;;;6185197;23;20451;-83
2022/12/06 04:47:32;;;;;;;0.20;0.20;;;3.60;99.90;;;;;;6185347;23;20321;-83
2022/12/06 04:49:58;;;;;;;0.75;0.20;;;3.50;99.90;;;;;;6185323;23;20114;-83
2022/12/06 04:52:23;;;;;;;0.30;0.30;;;4.00;99.90;;;;;;6185194;23;20021;-82
2022/12/06 04:54:49;;;;;;;0.63;0.30;;;4.50;99.90;;;;;;6184754;23;20024;-83
2022/12/06 04:57:16;;;;;;;0.43;0.30;;;3.40;99.90;;;;;;6185506;23;20336;-83
2022/12/06 04:59:44;;;;;;;0.70;0.40;;;3.90;99.90;;;;;;6159017;23;20111;-82
2022/12/06 05:02:12;;;;;;;0.60;0.35;;;3.20;99.90;;;;;;6185555;23;20068;-83
2022/12/06 05:04:38;;;;;;;0.30;0.22;;;3.90;99.90;;;;;;6159198;23;20048;-82
2022/12/06 05:07:04;;;;;;;0.32;0.30;;;3.60;99.90;;;;;;6185604;23;20024;-83
2022/12/06 05:09:29;;;;;;;0.25;0.20;;;3.90;99.90;;;;;;6185440;23;20444;-83
2022/12/06 05:11:55;;;;;;;0.60;0.30;;;2.80;99.90;;;;;;6159160;23;20020;-83
2022/12/06 05:14:21;;;;;;;0.30;0.30;;;3.00;99.90;;;;;;6185197;23;20452;-84
2022/12/06 05:16:47;;;;;;;0.73;0.30;;;3.40;99.90;;;;;;6185516;23;20056;-83
2022/12/06 05:19:13;;;;;;;1.23;0.30;;;3.00;99.90;;;;;;6158547;23;20075;-83
2022/12/06 05:21:39;;;;;;;2.42;0.38;;;3.30;99.90;;;;;;6158480;23;20013;-83
2022/12/06 05:24:05;;;;;;;0.40;0.30;;;3.00;99.90;;;;;;6185326;23;20035;-84
2022/12/06 05:26:31;;;;;;;0.75;0.50;;;3.00;99.90;;;;;;6158503;23;20017;-83
2022/12/06 05:28:57;;;;;;;0.60;0.40;;;3.00;99.90;;;;;;6185483;23;20144;-83
2022/12/06 05:31:24;;;;;;;0.60;0.30;;;3.20;99.90;;;;;;6159042;23;20017;-83
2022/12/06 05:33:50;;;;;;;1.67;0.50;;;3.00;99.90;;;;;;6158841;23;20023;-83
2022/12/06 05:36:19;;;;;;;0.95;0.40;;;2.60;99.90;;;;;;6158450;23;20025;-82
2022/12/06 05:38:46;;;;;;;3.30;0.50;;;2.90;99.90;;;;;;6185392;23;20020;-83
2022/12/06 05:41:12;;;;;;;0.52;0.40;;;3.10;99.90;;;;;;6158336;23;20021;-84
2022/12/06 05:43:38;;;;;;;0.73;0.30;;;2.70;99.90;;;;;;6158672;23;20021;-84
2022/12/06 05:46:04;;;;;;;1.23;0.45;;;3.00;99.90;;;;;;6185326;23;20059;-83
2022/12/06 05:48:30;;;;;;;2.10;0.38;;;2.80;99.90;;;;;;6158707;23;20134;-83
2022/12/06 05:50:55;;;;;;;1.20;0.50;;;2.80;99.90;;;;;;6185153;23;20025;-83
2022/12/06 05:53:21;;;;;;;1.45;0.32;;;2.90;99.90;;;;;;6185048;23;20068;-84
2022/12/06 05:55:47;;;;;;;0.55;0.40;;;2.50;99.90;;;;;;6185195;23;20067;-84
2022/12/06 05:58:14;;;;;;;2.10;0.80;;;3.80;99.90;;;;;;6185325;23;20021;-84
2022/12/06 06:00:40;;;;;;;3.30;0.70;;;2.30;99.90;;;;;;6186621;23;20341;-84
2022/12/06 06:03:06;;;;;;;2.53;0.70;;;3.40;99.90;;;;;;6160601;23;20024;-84
2022/12/06 06:05:32;;;;;;;2.30;0.70;;;2.80;99.90;;;;;;6187174;23;20484;-84
2022/12/06 06:07:57;;;;;;;2.33;0.80;;;3.00;99.90;;;;;;6160296;23;20044;-84
2022/12/06 06:10:23;;;;;;;1.10;0.70;;;3.10;99.90;;;;;;6160794;23;20024;-83
2022/12/06 06:12:49;;;;;;;0.70;0.50;;;2.80;99.90;;;;;;6187245;23;20019;-82
2022/12/06 06:15:15;;;;;;;1.58;0.88;;;3.00;99.90;;;;;;6160701;23;20348;-83
2022/12/06 06:17:42;;;;;;;2.97;0.95;;;2.90;99.90;;;;;;6187130;23;20029;-83
2022/12/06 06:20:10;;;;;;;4.35;0.60;;;3.00;99.90;;;;;;6186663;23;20021;-84
2022/12/06 06:22:37;;;;;;;7.70;0.80;;;3.00;99.90;;;;;;6160315;23;20076;-85
2022/12/06 06:25:05;;;;;;;1.85;0.60;;;4.30;99.90;;;;;;6186689;23;20462;-84
2022/12/06 06:27:33;;;;;;;1.48;0.63;;;3.10;99.90;;;;;;6186338;23;20084;-86
2022/12/06 06:29:59;;;;;;;0.88;0.70;;;3.10;99.90;;;;;;6186844;23;20017;-85
2022/12/06 06:32:24;;;;;;;0.45;0.40;;;3.80;99.90;;;;;;6160172;23;20017;-86
2022/12/06 06:34:50;;;;;;;0.80;0.30;;;3.10;99.90;;;;;;6186529;23;20074;-85
2022/12/06 06:37:16;;;;;;;0.82;0.40;;;3.10;99.90;;;;;;6186850;23;20511;-85
2022/12/06 06:39:42;;;;;;;0.43;0.30;;;2.90;99.90;;;;;;6159899;23;20032;-86
2022/12/06 06:42:07;;;;;;;1.20;0.40;;;3.50;99.90;;;;;;6160410;23;20016;-84
2022/12/06 06:44:33;;;;;;;0.63;0.43;;;2.20;99.90;;;;;;6160190;23;20404;-84
2022/12/06 06:46:58;;;;;;;0.70;0.50;;;3.90;99.90;;;;;;6187092;23;20048;-84
2022/12/06 06:49:24;;;;;;;0.55;0.40;;;3.20;99.90;;;;;;6186557;23;20013;-86
2022/12/06 06:51:50;;;;;;;0.50;0.40;;;2.70;99.90;;;;;;6159994;23;20032;-85
2022/12/06 06:54:17;;;;;;;1.55;0.60;;;2.60;99.90;;;;;;6185546;23;20025;-86
2022/12/06 06:56:42;;;;;;;0.57;0.50;;;2.90;99.90;;;;;;6184783;23;20028;-86
2022/12/06 06:59:08;;;;;;;0.50;0.40;;;2.50;99.90;;;;;;6185027;23;20031;-92
2022/12/06 07:01:37;;;;;;;1.02;0.50;;;3.50;99.90;;;;;;6158468;23;20392;-85
2022/12/06 07:04:03;;;;;;;1.08;0.60;;;2.30;99.90;;;;;;6158286;23;20025;-85
2022/12/06 07:06:28;;;;;;;1.30;0.52;;;2.40;99.90;;;;;;6158270;23;20020;-86
2022/12/06 07:08:54;;;;;;;0.90;0.52;;;3.40;99.90;;;;;;6158640;23;20021;-87
2022/12/06 07:11:20;;;;;;;1.55;0.68;;;2.50;99.90;;;;;;6158740;23;20333;-86
2022/12/06 07:13:45;;;;;;;2.45;0.60;;;2.30;99.90;;;;;;6185007;23;20095;-87
2022/12/06 07:16:15;;;;;;;1.67;0.60;;;3.10;99.90;;;;;;6158332;23;20103;-86
2022/12/06 07:18:42;;;;;;;2.25;0.60;;;2.20;99.90;;;;;;6158012;23;20369;-86
2022/12/06 07:21:12;;;;;;;0.75;0.50;;;1.70;99.90;;;;;;6157722;23;20073;-87
2022/12/06 07:23:38;;;;;;;1.20;0.50;;;2.10;99.90;;;;;;6158247;23;20452;-87
2022/12/06 07:26:10;;;;;;;1.40;0.63;;;2.20;99.90;;;;;;6184311;23;20024;-85
2022/12/06 07:28:37;;;;;;;1.00;0.68;;;2.30;99.90;;;;;;6158367;23;20111;-86
2022/12/06 07:31:14;;;;;;;0.68;0.45;;;3.20;99.90;;;;;;6158144;23;20013;-86
2022/12/06 07:33:40;;;;;;;2.85;0.50;;;2.00;99.90;;;;;;6185006;23;20013;-84
2022/12/06 07:36:07;;;;;;;1.80;0.50;;;1.30;99.90;;;;;;6184954;23;20025;-86
2022/12/06 07:38:33;;;;;;;0.60;0.50;;;2.10;99.90;;;;;;6157789;23;20025;-86
2022/12/06 07:44:59;;;;;;;1.30;0.50;;;2.00;99.90;;;;;;6184610;23;20021;-86
2022/12/06 07:46:34;;;;;;;1.30;0.67;;;2.00;99.90;;;;;;6184695;23;20100;-85
2022/12/06 07:49:00;;;;;;;1.67;0.63;;;2.10;99.90;;;;;;6184674;23;20162;-85
2022/12/06 07:51:26;;;;;;;1.38;0.50;;;1.90;99.90;;;;;;6157859;23;20318;-85
2022/12/06 07:53:52;;;;;;;1.52;0.40;;;2.10;99.90;;;;;;6033550;23;3545835;-85
2022/12/06 07:56:18;;;;;;;1.00;0.60;;;2.00;99.90;;;;;;6185827;23;20356;-87
2022/12/06 07:58:44;;;;;;;0.68;0.50;;;1.10;99.90;;;;;;6159303;23;20009;-86
2022/12/06 08:01:10;;;;;;;0.90;0.47;;;2.40;99.90;;;;;;6160220;23;20024;-84
2022/12/06 08:03:37;;;;;;;0.70;0.55;;;2.80;99.90;;;;;;6186508;23;20020;-84
2022/12/06 08:06:03;;;;;;;0.90;0.47;;;2.70;99.90;;;;;;6160075;23;20059;-85
2022/12/06 08:08:30;;;;;;;0.60;0.50;;;2.10;99.90;;;;;;6159951;23;20020;-86
2022/12/06 08:11:00;;;;;;;1.50;0.60;;;1.90;99.90;;;;;;6159588;23;20020;-86
2022/12/06 08:13:31;;;;;;;0.60;0.50;;;2.10;99.90;;;;;;6159574;23;20433;-88
2022/12/06 08:16:00;;;;;;;1.65;0.55;;;2.10;99.90;;;;;;6159250;23;20017;-87
2022/12/06 08:18:36;;;;;;;1.30;0.50;;;2.30;99.90;;;;;;6136900;23;20128;-85
2022/12/06 08:21:02;;;;;;;1.27;0.65;;;2.80;99.90;;;;;;6158921;23;20039;-84
2022/12/06 08:23:27;;;;;;;0.85;0.52;;;3.70;99.90;;;;;;6185939;23;20092;-86
2022/12/06 08:26:02;;;;;;;0.88;0.52;;;2.50;99.90;;;;;;6185688;23;20013;-84
2022/12/06 08:28:29;;;;;;;1.33;0.60;;;2.30;99.90;;;;;;6186327;23;20063;-83
2022/12/06 08:30:55;;;;;;;1.95;0.60;;;3.80;99.90;;;;;;6186116;23;20024;-86
2022/12/06 08:33:20;;;;;;;0.85;0.50;;;2.30;99.90;;;;;;6185677;23;20440;-86
2022/12/06 08:35:48;;;;;;;1.88;0.90;;;2.30;99.90;;;;;;6185817;23;20025;-87
2022/12/06 08:38:14;;;;;;;0.57;0.50;;;3.20;99.90;;;;;;6159801;23;20376;-85
2022/12/06 08:40:42;;;;;;;1.48;0.52;;;2.50;99.90;;;;;;6159540;23;20025;-87
2022/12/06 08:43:08;;;;;;;2.35;0.70;;;2.30;99.90;;;;;;6159356;23;20021;-85
2022/12/06 08:45:34;;;;;;;0.63;0.50;;;1.70;99.90;;;;;;6185978;23;20067;-84
2022/12/06 08:48:00;;;;;;;1.10;0.60;;;2.40;99.90;;;;;;6158996;23;20107;-83
2022/12/06 08:50:26;;;;;;;0.65;0.40;;;3.50;99.90;;;;;;6186098;23;20028;-87
2022/12/06 08:52:52;;;;;;;1.38;0.50;;;3.00;99.90;;;;;;6159289;23;20100;-87
2022/12/06 08:55:21;;;;;;;0.60;0.60;;;4.10;99.90;;;;;;6185365;23;20017;-84
2022/12/06 08:57:47;;;;;;;1.02;0.70;;;2.40;99.90;;;;;;6185709;23;20017;-87
2022/12/06 09:00:13;;;;;;;1.45;0.60;;;3.30;99.90;;;;;;6185984;23;20021;-85
2022/12/06 09:02:39;;;;;;;3.53;0.60;;;2.50;99.90;;;;;;6185583;23;20055;-84
2022/12/06 09:05:05;;;;;;;1.48;0.70;;;2.50;99.90;;;;;;6185757;23;20009;-86
2022/12/06 09:07:30;;;;;;;0.77;0.50;;;2.60;99.90;;;;;;6185583;23;20028;-84
2022/12/06 09:09:56;;;;;;;0.95;0.65;;;3.50;99.90;;;;;;6159406;23;20017;-84
2022/12/06 09:12:23;;;;;;;0.85;0.40;;;3.10;99.90;;;;;;6185820;23;20027;-90
2022/12/06 09:14:49;;;;;;;1.05;0.60;;;2.60;99.90;;;;;;6159098;23;20013;-86
2022/12/06 09:17:15;;;;;;;1.00;0.52;;;2.50;99.90;;;;;;6185722;23;20016;-87
2022/12/06 09:19:41;;;;;;;1.77;0.50;;;3.00;99.90;;;;;;6159008;23;20399;-87
2022/12/06 09:22:06;;;;;;;0.90;0.40;;;3.50;99.90;;;;;;6185628;23;20013;-90
2022/12/06 09:24:32;;;;;;;1.73;0.50;;;3.70;99.90;;;;;;6158942;23;20034;-85
2022/12/06 09:26:58;;;;;;;1.80;0.52;;;2.80;99.90;;;;;;6158858;23;20049;-87
2022/12/06 09:29:23;;;;;;;3.70;0.50;;;2.80;99.90;;;;;;6134628;23;20321;-86
2022/12/06 09:31:49;;;;;;;0.90;0.40;;;2.90;99.90;;;;;;6159040;23;20038;-86
2022/12/06 09:34:16;;;;;;;1.05;0.50;;;2.90;99.90;;;;;;6159290;23;20059;-85
2022/12/06 09:37:14;;;;;;;1.42;0.70;;;4.50;99.90;;;;;;6158846;23;20040;-88
2022/12/06 09:39:45;;;;;;;2.83;0.60;;;2.60;99.90;;;;;;6036737;23;20060;-84
2022/12/06 09:42:29;;;;;;;0.47;0.40;;;3.20;99.90;;;;;;6012993;23;20030;-86
2022/12/06 09:45:00;;;;;;;0.80;0.47;;;3.20;99.90;;;;;;6036981;23;20023;-85
2022/12/06 09:47:46;;;;;;;0.77;0.60;;;3.20;99.90;;;;;;6013056;23;20019;-86
2022/12/06 09:50:15;;;;;;;;;;;3.30;99.90;;;;;;6013199;23;20363;-87
2022/12/06 09:52:56;;;;;;;0.70;0.52;;;3.40;99.90;;;;;;6036477;23;19917;-87
2022/12/06 09:55:29;;;;;;;0.70;0.50;;;3.40;99.90;;;;;;6036565;23;20086;-86
2022/12/06 09:58:32;;;;;;;1.73;0.50;;;3.40;99.90;;;;;;6036639;23;20063;-86
2022/12/06 10:01:06;;;;;;;0.75;0.47;;;3.50;99.90;;;;;;6036929;23;20066;-86
2022/12/06 10:03:50;;;;;;;0.57;0.50;;;3.50;99.90;;;;;;6036994;23;20030;-84
2022/12/06 10:06:19;;;;;;;1.75;0.50;;;3.60;99.90;;;;;;6013054;23;20462;-86
2022/12/06 10:09:04;;;;;;;0.90;0.40;;;3.60;99.90;;;;;;6036992;23;20468;-85
2022/12/06 10:11:53;;;;;;;0.75;0.40;;;3.70;99.90;;;;;;6036790;23;20381;-84
2022/12/06 10:14:34;;;;;;;1.08;0.50;;;2.60;99.90;;;;;;5952575;24;20069;-85
2022/12/06 10:17:17;;;;;;;3.40;0.70;;;3.80;99.90;;;;;;6029721;23;20015;-84
2022/12/06 10:20:01;;;;;;;0.98;0.60;;;3.80;99.90;;;;;;6041056;23;20023;-85
2022/12/06 10:22:29;;;;;;;1.10;0.52;;;3.90;99.90;;;;;;6065587;23;20023;-85
2022/12/06 10:25:18;;;;;;;0.90;0.52;;;3.90;99.90;;;;;;6041248;23;20019;-87
2022/12/06 10:28:04;;;;;;;1.23;0.70;;;4.00;99.90;;;;;;6041554;23;20039;-85
2022/12/06 10:30:39;;;;;;;1.48;0.90;;;4.10;99.90;;;;;;6065503;23;20074;-86
2022/12/06 10:33:35;;;;;;;1.73;0.60;;;4.70;99.90;;;;;;6065467;23;20022;-85
2022/12/06 10:36:03;;;;;;;;;;;4.20;99.90;;;;;;5957413;24;20020;-83
2022/12/06 10:38:45;;;;;;;1.20;0.55;;;4.20;99.90;;;;;;5980057;24;19965;-84
2022/12/06 10:41:15;;;;;;;1.45;0.50;;;4.20;99.90;;;;;;5980418;24;20348;-84
2022/12/06 10:43:57;;;;;;;1.20;0.75;;;4.20;99.90;;;;;;5980282;24;20023;-84
2022/12/06 10:47:03;;;;;;;1.08;0.60;;;4.20;99.90;;;;;;5981753;24;20024;-86
2022/12/06 10:49:52;;;;;;;2.42;0.52;;;4.30;99.90;;;;;;5982055;24;20072;-86
2022/12/06 10:52:40;;;;;;;1.58;0.70;;;4.30;99.90;;;;;;6032194;23;20171;-85
2022/12/06 10:55:09;;;;;;;0.85;0.50;;;4.30;99.90;;;;;;6066857;23;20038;-87
2022/12/06 10:57:42;;;;;;;0.93;0.52;;;4.40;99.90;;;;;;6066628;23;20177;-85
2022/12/06 11:00:22;;;;;;;1.35;0.57;;;4.50;99.90;;;;;;6042932;23;20458;-84
2022/12/06 11:03:01;;;;;;;1.33;0.60;;;4.60;99.90;;;;;;6043117;23;20450;-85
2022/12/06 11:05:44;;;;;;;0.50;0.30;;;4.80;99.90;;;;;;6042875;23;20019;-84
2022/12/06 11:08:36;;;;;;;0.57;0.43;;;4.80;99.90;;;;;;6043109;23;20019;-84
2022/12/06 11:11:04;;;;;;;2.88;0.50;;;5.00;99.90;;;;;;6059294;23;20034;-86
2022/12/06 11:13:51;;;;;;;3.15;0.60;;;5.20;99.90;;;;;;6110781;23;20135;-85
2022/12/06 11:16:21;;;;;;;0.60;0.50;;;5.90;99.90;;;;;;6124877;23;20118;-89
2022/12/06 11:18:48;;;;;;;1.42;0.50;;;6.30;99.90;;;;;;6125241;23;20089;-87
2022/12/06 11:21:36;;;;;;;1.58;0.57;;;6.30;99.90;;;;;;6124998;23;20026;-86
2022/12/06 11:24:11;;;;;;;0.70;0.40;;;5.40;99.90;;;;;;6143708;23;20669;-85
2022/12/06 11:26:39;;;;;;;1.25;0.40;;;5.70;99.90;;;;;;6186086;23;20059;-84
2022/12/06 11:29:10;;;;;;;0.75;0.38;;;5.70;99.90;;;;;;6186280;23;20344;-86
2022/12/06 11:31:37;;;;;;;1.42;0.63;;;4.90;99.90;;;;;;6186212;23;20010;-87
2022/12/06 11:34:17;;;;;;;3.67;0.52;;;6.10;99.90;;;;;;6186790;23;20448;-84
2022/12/06 11:36:44;;;;;;;0.40;0.32;;;6.60;99.90;;;;;;6186484;23;20013;-85
2022/12/06 11:39:13;;;;;;;0.50;0.50;;;5.60;99.90;;;;;;6186503;23;20013;-87
2022/12/06 11:41:39;;;;;;;0.30;0.30;;;6.20;99.90;;;;;;6186052;23;20017;-83
2022/12/06 11:44:05;;;;;;;0.85;0.50;;;5.90;99.90;;;;;;6186208;23;20119;-88
2022/12/06 11:46:31;;;;;;;0.90;0.40;;;6.40;99.90;;;;;;6186493;23;20053;-87
2022/12/06 11:49:24;;;;;;;0.50;0.30;;;6.40;99.90;;;;;;6186414;23;20055;-85
2022/12/06 11:51:51;;;;;;;2.40;0.45;;;6.10;99.90;;;;;;6159739;23;20049;-87
2022/12/06 11:54:26;;;;;;;1.35;0.50;;;6.60;99.90;;;;;;6185971;23;20099;-89
2022/12/06 11:56:52;;;;;;;0.60;0.35;;;7.30;99.90;;;;;;6159041;23;20429;-84
2022/12/06 11:59:27;;;;;;;1.10;0.60;;;6.40;99.90;;;;;;6159506;23;20456;-85
2022/12/06 12:02:02;;;;;;;2.88;0.88;;;6.50;99.90;;;;;;6186372;23;20024;-86
2022/12/06 12:04:36;;;;;;;0.70;0.55;;;6.50;99.90;;;;;;6159752;23;20459;-87
2022/12/06 12:07:34;;;;;;;0.70;0.40;;;6.50;99.90;;;;;;6159556;23;20562;-82
2022/12/06 12:10:03;;;;;;;1.63;0.70;;;6.50;99.90;;;;;;6037423;23;20055;-88
2022/12/06 12:15:34;;;;;;;1.90;0.45;;;7.10;99.90;;;;;;6037433;23;20094;-84
2022/12/06 12:18:02;;;;;;;1.17;0.70;;;7.20;99.90;;;;;;6037330;23;20031;-85
2022/12/06 12:20:35;;;;;;;0.80;0.50;;;6.80;99.90;;;;;;6037108;23;20019;-91
2022/12/06 12:23:13;;;;;;;1.02;0.50;;;7.60;99.90;;;;;;6037766;23;20074;-88
2022/12/06 12:25:41;;;;;;;1.48;0.43;;;7.10;99.90;;;;;;6037045;23;20030;-86
2022/12/06 12:28:33;;;;;;;1.65;0.50;;;7.70;99.90;;;;;;6037342;23;20023;-86
2022/12/06 12:31:09;;;;;;;0.93;0.50;;;7.20;99.90;;;;;;6013799;23;20127;-88
2022/12/06 12:33:35;;;;;;;2.42;0.50;;;7.20;99.90;;;;;;6036658;23;20555;-87
2022/12/06 12:36:01;;;;;;;2.15;0.60;;;8.00;99.90;;;;;;6013457;23;20121;-87
2022/12/06 12:38:32;;;;;;;1.35;0.57;;;8.00;99.90;;;;;;6036609;23;20053;-88
2022/12/06 12:41:04;;;;;;;0.73;0.40;;;7.10;99.90;;;;;;6013498;23;20027;-87
2022/12/06 12:43:32;;;;;;;0.98;0.38;;;6.80;99.90;;;;;;6036940;23;20518;-86
2022/12/06 12:46:06;;;;;;;2.17;0.50;;;7.80;99.90;;;;;;6135814;23;20021;-87
2022/12/06 12:48:32;;;;;;;1.25;0.60;;;7.10;99.90;;;;;;6185320;23;20083;-84
2022/12/06 12:51:00;;;;;;;1.95;0.63;;;8.10;99.90;;;;;;6159645;23;20017;-86
2022/12/06 12:53:43;;;;;;;0.70;0.50;;;8.00;99.90;;;;;;6159515;23;20095;-86
2022/12/06 12:56:16;;;;;;;2.40;0.50;;;7.30;99.90;;;;;;6159456;23;20017;-85
2022/12/06 12:58:45;;;;;;;1.35;0.55;;;7.10;99.90;;;;;;6185201;23;20088;-84
2022/12/06 13:01:36;;;;;;;0.90;0.60;;;7.10;99.90;;;;;;6185501;23;20013;-83
2022/12/06 13:04:14;;;;;;;2.40;0.70;;;7.00;99.90;;;;;;6185669;23;20052;-84
2022/12/06 13:06:45;;;;;;;1.20;0.60;;;7.00;99.90;;;;;;6159058;23;20017;-83
2022/12/06 13:09:39;;;;;;;2.10;0.85;;;7.00;99.90;;;;;;6158783;23;20336;-84
2022/12/06 13:12:13;;;;;;;1.88;0.50;;;7.90;99.90;;;;;;6036825;23;20392;-85
2022/12/06 13:14:50;;;;;;;0.68;0.52;;;7.60;99.90;;;;;;6036584;23;20023;-84
2022/12/06 13:17:17;;;;;;;0.88;0.45;;;6.00;99.90;;;;;;6036715;23;20023;-84
2022/12/06 13:19:46;;;;;;;0.68;0.40;;;6.90;99.90;;;;;;6036583;23;20026;-85
2022/12/06 13:22:22;;;;;;;0.70;0.40;;;7.40;99.90;;;;;;6036628;23;20116;-85
2022/12/06 13:25:04;;;;;;;0.50;0.40;;;6.90;99.90;;;;;;6036329;23;20094;-85
2022/12/06 13:27:36;;;;;;;0.40;0.40;;;7.60;99.90;;;;;;6036693;23;20090;-86
2022/12/06 13:30:14;;;;;;;0.82;0.50;;;7.70;99.90;;;;;;6012916;23;20031;-85